Flight Track Log - Related Links

Times and Time Zones

All times are in EDT time to prevent confusion due to time zone crossing. See the EGF2928 flight status page for this flight to view local times or setup timezone preferences in your user account.

Time Position Orientation Groundspeed Altitude Reporting Facility
EDT Latitude Longitude Course Direction KTS MPH feet Rate Location/Type
Mon 10:09:26 AM 32.8833 -97.0333 68° East 167 192 1,300  Level Dallas / Fort Worth TRACON
Mon 10:10:26 AM 32.8333 -97.0333 180° South 213 245 3,400 2,000 Climbing Dallas / Fort Worth TRACON
Mon 10:11:00 AM 32.6893 -96.9630 103° East  Level FlightAware Approximate
Mon 10:11:26 AM 32.7667 -97.0333 180° South 221 254 5,300  Level Dallas / Fort Worth TRACON
Mon 10:12:00 AM 32.6833 -96.8271 90° East  Level FlightAware Approximate
Mon 10:12:26 AM 32.7000 -97.0167 168° South 280 322 7,200  Level Dallas / Fort Worth TRACON
Mon 10:13:00 AM 32.7174 -96.6980 68° East  Level FlightAware Approximate
Mon 10:13:26 AM 32.6833 -96.9167 101° East 284 327 9,500  Level Dallas / Fort Worth TRACON
Mon 10:14:00 AM 32.7598 -96.5708 68° East  Level FlightAware Approximate
Mon 10:14:20 AM 32.7000 -96.8333 77° East 329 379 10,000  Level Dallas / Fort Worth TRACON
Mon 10:15:20 AM 32.7167 -96.7167 80° East 360 414 10,000 650 Level Dallas / Fort Worth TRACON
Mon 10:16:20 AM 32.7667 -96.6167 59° Northeast 362 417 11,300 1,469 Climbing Dallas / Fort Worth TRACON
Mon 10:16:58 AM 32.7886 -96.5508 68° East 380 437 12,400 1,592 Climbing Fort Worth Center
Mon 10:17:58 AM 32.8214 -96.4517 69° East 376 433 13,900 1,800 Climbing Fort Worth Center
Mon 10:18:58 AM 32.8622 -96.3375 67° East 356 410 16,000 2,000 Climbing Fort Worth Center
Mon 10:19:58 AM 32.8656 -96.2336 88° East 341 392 17,900 1,700 Climbing Fort Worth Center
Mon 10:20:58 AM 32.8686 -96.1197 88° East 318 366 19,400 1,450 Climbing Fort Worth Center
Mon 10:21:58 AM 32.8694 -96.0208 89° East 318 366 20,800 1,500 Climbing Fort Worth Center
Mon 10:22:58 AM 32.8722 -95.8997 88° East 323 372 22,400 1,500 Climbing Fort Worth Center
Mon 10:23:58 AM 32.8753 -95.7983 88° East 335 386 23,800 1,500 Climbing Fort Worth Center
Mon 10:24:58 AM 32.8756 -95.6719 90° East 340 391 25,400 1,350 Climbing Fort Worth Center
Mon 10:25:58 AM 32.8722 -95.5706 92° East 340 391 26,500 1,300 Climbing Fort Worth Center
Mon 10:26:58 AM 32.8744 -95.4569 89° East 340 391 28,000 1,250 Climbing Fort Worth Center
Mon 10:27:58 AM 32.8792 -95.3456 87° East 345 397 29,000 500 Climbing Fort Worth Center
Mon 10:28:58 AM 32.8978 -95.2214 80° East 351 404 29,000  Level Fort Worth Center
Mon 10:29:58 AM 32.9186 -95.0947 79° East 370 426 29,000  Level Fort Worth Center
Mon 10:30:58 AM 32.9389 -94.9581 80° East 396 456 29,000  Level Fort Worth Center
Mon 10:31:58 AM 32.9611 -94.8186 79° East 415 478 29,000  Level Fort Worth Center
Mon 10:32:58 AM 32.9831 -94.6744 80° East 427 491 29,000  Level Fort Worth Center
Mon 10:33:58 AM 33.0050 -94.5350 79° East 433 498 29,000  Level Fort Worth Center
Mon 10:34:58 AM 33.0247 -94.3908 81° East 433 498 29,000  Level Fort Worth Center
Mon 10:35:58 AM 33.0442 -94.2489 81° East 433 498 29,000  Level Fort Worth Center
Mon 10:36:58 AM 33.0656 -94.1067 80° East 433 498 29,000  Level Fort Worth Center
Mon 10:37:58 AM 33.0883 -93.9472 80° East 433 498 29,000  Level Fort Worth Center
Mon 10:38:58 AM 33.1092 -93.8000 80° East 433 498 29,000  Level Fort Worth Center
Mon 10:39:58 AM 33.1300 -93.6553 80° East 438 504 29,000  Level Fort Worth Center
Mon 10:40:58 AM 33.1486 -93.5108 81° East 438 504 29,000  Level Fort Worth Center
Mon 10:41:58 AM 33.1336 -93.3675 97° East 433 498 29,000  Level Fort Worth Center
Mon 10:42:58 AM 33.1122 -93.2222 100° East 433 498 29,000  Level Fort Worth Center
Mon 10:43:58 AM 33.0925 -93.0769 99° East 440 506 29,000  Level Fort Worth Center
Mon 10:44:58 AM 33.0686 -92.9317 101° East 447 514 29,000  Level Fort Worth Center
Mon 10:45:58 AM 33.0489 -92.7867 99° East 447 514 29,000  Level Fort Worth Center
Mon 10:46:58 AM 33.0247 -92.6417 101° East 447 514 29,000  Level Fort Worth Center
Mon 10:47:58 AM 33.0044 -92.4992 100° East 447 514 29,000  Level Fort Worth Center
Mon 10:48:58 AM 32.9822 -92.3542 100° East 447 514 29,000  Level Fort Worth Center
Mon 10:50:44 AM 32.9436 -92.1172 101° East 457 526 29,000  Level Memphis Center
Mon 10:51:44 AM 32.9183 -91.9683 101° East 452 520 29,000  Level Memphis Center
Mon 10:52:44 AM 32.8950 -91.8244 101° East 452 520 29,000  Level Memphis Center
Mon 10:53:44 AM 32.8675 -91.6781 103° East 446 513 29,000 -450 Level Memphis Center
Mon 10:54:44 AM 32.8481 -91.5369 99° East 446 513 28,100 -950 Descending Memphis Center
Mon 10:55:44 AM 32.8264 -91.3906 100° East 451 519 27,100 -550 Descending Memphis Center
Mon 10:56:44 AM 32.8025 -91.2444 101° East 451 519 27,000 -50 Descending Memphis Center
Mon 10:57:44 AM 32.7783 -91.0986 101° East 451 519 27,000  Level Memphis Center
Mon 10:58:44 AM 32.7583 -90.9550 99° East 451 519 27,000  Level Memphis Center
Mon 10:59:44 AM 32.7317 -90.8117 102° East 445 512 27,000  Level Memphis Center
Mon 11:00:44 AM 32.7050 -90.6633 102° East 445 512 27,000  Level Memphis Center
Mon 11:01:44 AM 32.6803 -90.5203 102° East 450 518 27,000  Level Memphis Center
Mon 11:02:44 AM 32.6553 -90.3744 101° East 445 512 27,000  Level Memphis Center
Mon 11:03:44 AM 32.6322 -90.2292 101° East 445 512 27,000  Level Memphis Center
Mon 11:04:44 AM 32.6069 -90.0836 102° East 451 519 27,000  Level Memphis Center
Mon 11:05:44 AM 32.5772 -89.9233 102° East 451 519 27,000  Level Memphis Center
Mon 11:06:44 AM 32.5536 -89.7781 101° East 451 519 27,000  Level Memphis Center
Mon 11:07:45 AM 32.5258 -89.6306 103° East 451 519 27,000  Level Memphis Center
Mon 11:08:44 AM 32.5019 -89.4878 101° East 451 519 27,000  Level Memphis Center
Mon 11:09:44 AM 32.4756 -89.3378 102° East 451 519 27,000 -150 Level Memphis Center
Mon 11:10:44 AM 32.4494 -89.1928 102° East 451 519 26,700 -600 Descending Memphis Center
Mon 11:11:44 AM 32.4228 -89.0506 102° East 446 513 25,800 -900 Descending Memphis Center
Mon 11:12:44 AM 32.3983 -88.9081 101° East 446 513 24,900 -900 Descending Memphis Center
Mon 11:13:44 AM 32.3778 -88.7608 99° East 446 513 24,000 -266 Descending Memphis Center
Mon 11:16:07 AM 32.3683 -88.4136 92° East 442 509 24,000  Level Atlanta Center
Mon 11:17:07 AM 32.3653 -88.2586 91° East 448 516 24,000  Level Atlanta Center
Mon 11:18:07 AM 32.3600 -88.1058 92° East 453 521 24,000 -50 Level Atlanta Center
Mon 11:19:07 AM 32.3567 -87.9556 91° East 458 527 23,900 -1,250 Descending Atlanta Center
Mon 11:20:07 AM 32.3528 -87.8081 92° East 458 527 21,500 -2,600 Descending Atlanta Center
Mon 11:21:07 AM 32.3486 -87.6653 92° East 452 520 18,700 -2,600 Descending Atlanta Center
Mon 11:22:07 AM 32.3464 -87.5250 91° East 441 507 16,300 -2,600 Descending Atlanta Center
Mon 11:23:07 AM 32.3400 -87.3869 93° East 426 490 13,500 -2,600 Descending Atlanta Center
Mon 11:24:07 AM 32.3325 -87.2689 94° East 416 479 11,100 -1,250 Descending Atlanta Center
Mon 11:25:07 AM 32.3294 -87.1483 92° East 387 445 11,000 -50 Descending Atlanta Center
Mon 11:26:07 AM 32.3261 -87.0350 92° East 361 415 11,000 -350 Level Atlanta Center
Mon 11:27:07 AM 32.3222 -86.9292 92° East 335 386 10,300 -1,250 Descending Atlanta Center
Mon 11:28:07 AM 32.3183 -86.8333 93° East 311 358 8,500 -1,800 Descending Atlanta Center
Mon 11:29:07 AM 32.3161 -86.7422 92° East 295 339 6,700 -1,800 Descending Atlanta Center

Login

Don't have an account? Register now (free) for customized features, flight alerts, and more!